Time;durP1;ratioP1;P1;durP2;ratioP2;P2;SDS_P1;SDS_P2;PMS_P1;PMS_P2;Temp;Humidity;BMP_temperature;BMP_pressure;BME280_temperature;BME280_humidity;BME280_pressure;Samples;Min_cycle;Max_cycle;Signal;HPM_P1;HPM_P2
2023/09/06 00:00:52;;;;;;;4.43;2.15;;;18.90;99.90;;;;;;4967980;28;20038;-65
2023/09/06 00:03:18;;;;;;;1.20;1.10;;;18.80;99.90;;;;;;4966021;28;20132;-65
2023/09/06 00:05:44;;;;;;;2.80;1.67;;;18.70;99.90;;;;;;4970861;28;20041;-65
2023/09/06 00:08:14;;;;;;;3.30;1.83;;;18.60;99.90;;;;;;4968769;28;20030;-65
2023/09/06 00:10:41;;;;;;;1.65;1.48;;;18.50;99.90;;;;;;4965623;28;20042;-65
2023/09/06 00:13:07;;;;;;;3.13;1.67;;;18.40;99.90;;;;;;4968342;28;20027;-64
2023/09/06 00:15:34;;;;;;;1.80;1.50;;;18.40;99.90;;;;;;4966644;28;20026;-66
2023/09/06 00:17:59;;;;;;;2.38;1.65;;;18.30;99.90;;;;;;4970260;28;20731;-70
2023/09/06 00:20:25;;;;;;;2.63;1.58;;;18.20;99.90;;;;;;4967547;28;20030;-65
2023/09/06 00:22:58;;;;;;;8.65;1.50;;;18.10;99.90;;;;;;4963483;28;20381;-65
2023/09/06 00:25:29;;;;;;;2.38;1.45;;;18.00;99.90;;;;;;4962544;28;20710;-65
2023/09/06 00:27:56;;;;;;;4.53;1.40;;;17.90;99.90;;;;;;4966907;28;20449;-65
2023/09/06 00:30:21;;;;;;;3.35;1.45;;;17.80;99.90;;;;;;4961280;28;20031;-63
2023/09/06 00:32:52;;;;;;;4.50;2.22;;;17.80;99.90;;;;;;4963376;28;20030;-66
2023/09/06 00:35:19;;;;;;;2.40;1.77;;;17.70;99.90;;;;;;4963155;28;20156;-65
2023/09/06 00:37:45;;;;;;;4.28;1.65;;;17.60;99.90;;;;;;4968985;28;20397;-65
2023/09/06 00:40:17;;;;;;;2.08;1.42;;;17.70;99.90;;;;;;4968283;28;20037;-65
2023/09/06 00:42:46;;;;;;;4.03;1.40;;;17.70;99.90;;;;;;4969297;28;20555;-66
2023/09/06 00:45:12;;;;;;;3.55;1.58;;;17.70;99.90;;;;;;4969147;28;20038;-65
2023/09/06 00:47:38;;;;;;;6.32;1.30;;;17.60;99.90;;;;;;4963592;28;20035;-65
2023/09/06 00:50:04;;;;;;;2.55;1.55;;;17.70;99.90;;;;;;4968374;28;20023;-67
2023/09/06 00:52:30;;;;;;;2.10;1.70;;;17.60;99.90;;;;;;4965006;28;20074;-65
2023/09/06 00:55:00;;;;;;;3.00;1.52;;;17.60;99.90;;;;;;4967542;28;20555;-65
2023/09/06 00:57:29;;;;;;;2.50;1.48;;;17.70;99.90;;;;;;4984786;23;20022;-66
2023/09/06 00:59:58;;;;;;;2.58;1.40;;;17.60;99.90;;;;;;4988667;28;20515;-66
2023/09/06 01:02:24;;;;;;;6.20;1.58;;;17.60;99.90;;;;;;4974038;28;20104;-65
2023/09/06 01:04:50;;;;;;;4.68;1.98;;;17.60;99.90;;;;;;4982556;28;20252;-65
2023/09/06 01:07:16;;;;;;;2.70;1.33;;;17.70;99.90;;;;;;4988414;28;20133;-64
2023/09/06 01:09:43;;;;;;;3.50;1.95;;;17.70;99.90;;;;;;4985919;28;20037;-64
2023/09/06 01:12:09;;;;;;;1.80;1.40;;;17.80;99.90;;;;;;4958560;28;20034;-64
2023/09/06 01:14:38;;;;;;;2.63;1.40;;;17.80;99.90;;;;;;4987548;28;20034;-64
2023/09/06 01:17:04;;;;;;;5.60;1.40;;;17.80;99.90;;;;;;4983526;28;20026;-62
2023/09/06 01:19:32;;;;;;;2.55;1.77;;;17.80;99.90;;;;;;4971774;28;20058;-65
2023/09/06 01:22:06;;;;;;;4.03;1.75;;;17.70;99.90;;;;;;4966605;28;20041;-65
2023/09/06 01:24:32;;;;;;;5.82;1.85;;;17.80;99.90;;;;;;4985593;28;20044;-64
2023/09/06 01:26:58;;;;;;;2.13;1.20;;;17.80;99.90;;;;;;4985578;28;20030;-64
2023/09/06 01:29:24;;;;;;;3.92;1.60;;;17.90;99.90;;;;;;4992243;28;20042;-65
2023/09/06 01:31:49;;;;;;;4.60;1.52;;;17.90;99.90;;;;;;4989233;28;20369;-64
2023/09/06 01:34:15;;;;;;;2.28;1.30;;;17.80;99.90;;;;;;4988199;28;20525;-65
2023/09/06 01:36:41;;;;;;;5.70;2.30;;;17.70;99.90;;;;;;4990123;28;20035;-64
2023/09/06 01:39:08;;;;;;;4.95;1.33;;;17.70;99.90;;;;;;4984753;28;20049;-67
2023/09/06 01:41:33;;;;;;;1.95;0.88;;;17.70;99.90;;;;;;4973852;28;20031;-65
2023/09/06 01:44:00;;;;;;;2.38;1.75;;;17.60;99.90;;;;;;4983669;28;20074;-65
2023/09/06 01:46:26;;;;;;;3.53;1.60;;;17.40;99.90;;;;;;4988341;28;20038;-65
2023/09/06 01:48:51;;;;;;;4.20;1.50;;;17.40;99.90;;;;;;4988180;28;20030;-65
2023/09/06 01:51:17;;;;;;;3.42;1.45;;;17.40;99.90;;;;;;4984616;28;20053;-65
2023/09/06 01:53:43;;;;;;;9.02;1.50;;;17.40;99.90;;;;;;4989976;28;20031;-65
2023/09/06 01:56:09;;;;;;;3.40;1.77;;;17.30;99.90;;;;;;4989016;28;20412;-65
2023/09/06 01:58:35;;;;;;;2.80;1.60;;;17.40;99.90;;;;;;4958751;28;20054;-65
2023/09/06 02:01:00;;;;;;;2.17;1.75;;;17.30;99.90;;;;;;4985770;28;20921;-67
2023/09/06 02:03:29;;;;;;;2.40;1.50;;;17.20;99.90;;;;;;4987137;28;20038;-65
2023/09/06 02:05:55;;;;;;;7.55;1.60;;;17.10;99.90;;;;;;4988555;28;20030;-65
2023/09/06 02:08:21;;;;;;;2.85;1.90;;;17.10;99.90;;;;;;4983137;28;20037;-65
2023/09/06 02:10:47;;;;;;;4.03;1.88;;;16.90;99.90;;;;;;4982622;28;20230;-65
2023/09/06 02:13:12;;;;;;;2.45;1.70;;;16.80;99.90;;;;;;4988267;28;20030;-65
2023/09/06 02:15:38;;;;;;;3.20;1.52;;;16.80;99.90;;;;;;4987729;28;20029;-66
2023/09/06 02:18:05;;;;;;;3.45;1.83;;;16.70;99.90;;;;;;4982647;28;20398;-66
2023/09/06 02:20:30;;;;;;;9.38;1.92;;;16.70;99.90;;;;;;4987617;28;20418;-66
2023/09/06 02:22:56;;;;;;;3.55;1.70;;;16.70;99.90;;;;;;4985658;28;20038;-66
2023/09/06 02:25:25;;;;;;;2.33;1.63;;;16.60;99.90;;;;;;4988192;28;20153;-65
2023/09/06 02:27:52;;;;;;;2.50;1.67;;;16.60;99.90;;;;;;4986536;28;20031;-65
2023/09/06 02:30:18;;;;;;;2.92;1.95;;;16.60;99.90;;;;;;4986752;28;20022;-65
2023/09/06 02:32:43;;;;;;;6.32;1.50;;;16.60;99.90;;;;;;4985815;28;20041;-65
2023/09/06 02:35:09;;;;;;;3.95;1.63;;;16.70;99.90;;;;;;4987008;28;20054;-65
2023/09/06 02:37:35;;;;;;;2.90;1.83;;;16.70;99.90;;;;;;4984304;28;20125;-65
2023/09/06 02:43:42;;;;;;;2.50;1.58;;;16.70;99.90;;;;;;4989819;28;20054;-65
2023/09/06 02:46:07;;;;;;;2.92;1.75;;;16.70;99.90;;;;;;4987812;28;20060;-63
2023/09/06 02:48:33;;;;;;;4.75;1.70;;;16.80;99.90;;;;;;4997334;28;20030;-65
2023/09/06 02:50:59;;;;;;;3.25;2.17;;;16.80;99.90;;;;;;4997009;28;20041;-64
2023/09/06 02:53:26;;;;;;;2.42;1.42;;;16.80;99.90;;;;;;4998060;28;20081;-64
2023/09/06 02:55:53;;;;;;;3.40;2.05;;;16.60;99.90;;;;;;4998033;28;20030;-62
2023/09/06 02:58:23;;;;;;;4.22;2.00;;;16.50;99.90;;;;;;4996796;28;20108;-64
2023/09/06 03:00:49;;;;;;;4.07;1.65;;;16.40;99.90;;;;;;4996805;28;20026;-64
2023/09/06 03:03:16;;;;;;;2.85;1.90;;;16.40;99.90;;;;;;4996939;28;20038;-65
2023/09/06 03:05:42;;;;;;;4.10;1.33;;;16.30;99.90;;;;;;4996632;28;20050;-65
2023/09/06 03:08:12;;;;;;;2.17;1.70;;;16.20;99.90;;;;;;4996846;28;20034;-64
2023/09/06 03:10:44;;;;;;;2.80;1.70;;;16.10;99.90;;;;;;4996463;28;20812;-65
2023/09/06 03:13:10;;;;;;;6.38;2.45;;;16.10;99.90;;;;;;4983514;28;20396;-65
2023/09/06 03:15:35;;;;;;;4.75;2.00;;;16.10;99.90;;;;;;4996978;28;20037;-61
2023/09/06 03:18:02;;;;;;;3.65;1.92;;;16.10;99.90;;;;;;4998827;28;20033;-64
2023/09/06 03:20:42;;;;;;;3.92;1.55;;;16.10;99.90;;;;;;4996258;28;20033;-66
2023/09/06 03:23:19;;;;;;;3.28;1.80;;;16.10;99.90;;;;;;5003174;28;20525;-65
2023/09/06 03:25:54;;;;;;;2.55;1.73;;;16.00;99.90;;;;;;4998413;28;20068;-64
2023/09/06 03:28:20;;;;;;;2.80;1.70;;;15.90;99.90;;;;;;4998660;28;20025;-64
2023/09/06 03:30:47;;;;;;;3.83;2.45;;;15.90;99.90;;;;;;4996602;28;20030;-65
2023/09/06 03:33:12;;;;;;;4.88;2.83;;;15.80;99.90;;;;;;4997542;28;20042;-66
2023/09/06 03:35:38;;;;;;;3.25;2.20;;;15.70;99.90;;;;;;5000324;28;20064;-61
2023/09/06 03:38:09;;;;;;;2.63;1.73;;;15.60;99.90;;;;;;4997856;28;20034;-66
2023/09/06 03:40:35;;;;;;;2.90;1.67;;;15.50;99.90;;;;;;4998307;28;20471;-63
2023/09/06 03:43:26;;;;;;;4.40;2.40;;;15.50;99.90;;;;;;4997752;28;20073;-64
2023/09/06 03:45:53;;;;;;;3.20;2.05;;;15.50;99.90;;;;;;4996906;28;20033;-64
2023/09/06 03:48:22;;;;;;;2.17;1.40;;;15.50;99.90;;;;;;4998483;28;20088;-66
2023/09/06 03:50:51;;;;;;;4.22;1.80;;;15.50;99.90;;;;;;4996623;28;20065;-66
2023/09/06 03:53:17;;;;;;;3.75;1.95;;;15.50;99.90;;;;;;4999422;28;20061;-66
2023/09/06 03:55:43;;;;;;;3.67;2.08;;;15.40;99.90;;;;;;4998823;28;20801;-65
2023/09/06 03:58:10;;;;;;;2.33;1.65;;;15.40;99.90;;;;;;4996867;28;20506;-65
2023/09/06 04:00:39;;;;;;;6.00;1.98;;;15.40;99.90;;;;;;4997193;28;20113;-64
2023/09/06 04:03:07;;;;;;;2.30;1.73;;;15.40;99.90;;;;;;4996671;28;20698;-66
2023/09/06 04:05:34;;;;;;;6.28;2.30;;;15.30;99.90;;;;;;4995952;28;20035;-64
2023/09/06 04:08:04;;;;;;;5.00;2.15;;;15.30;99.90;;;;;;5005013;28;20041;-65
2023/09/06 04:10:36;;;;;;;5.03;2.28;;;15.20;99.90;;;;;;5005938;28;20030;-65
2023/09/06 04:13:07;;;;;;;4.07;2.15;;;15.20;99.90;;;;;;5008588;28;20080;-65
2023/09/06 04:15:36;;;;;;;7.20;2.20;;;15.20;99.90;;;;;;5007593;28;20469;-65
2023/09/06 04:18:07;;;;;;;5.00;2.20;;;15.10;99.90;;;;;;5010028;28;20033;-65
2023/09/06 04:20:36;;;;;;;2.65;1.83;;;15.20;99.90;;;;;;5008435;28;20025;-66
2023/09/06 04:23:06;;;;;;;2.72;1.92;;;15.20;99.90;;;;;;5001057;28;20030;-65
2023/09/06 04:25:43;;;;;;;2.67;1.98;;;15.20;99.90;;;;;;5010793;28;20022;-65
2023/09/06 04:28:10;;;;;;;5.30;2.50;;;15.20;99.90;;;;;;5007879;28;20056;-65
2023/09/06 04:30:37;;;;;;;5.57;2.50;;;15.20;99.90;;;;;;5004623;28;20623;-66
2023/09/06 04:33:04;;;;;;;6.22;2.10;;;15.10;99.90;;;;;;5008472;28;20050;-65
2023/09/06 04:35:36;;;;;;;3.30;2.22;;;15.00;99.90;;;;;;5007964;28;20061;-64
2023/09/06 04:38:02;;;;;;;3.47;2.10;;;15.00;99.90;;;;;;5007319;28;20088;-65
2023/09/06 04:40:29;;;;;;;2.92;2.40;;;15.10;99.90;;;;;;5007114;28;20482;-63
2023/09/06 04:42:55;;;;;;;3.13;1.92;;;15.10;99.90;;;;;;4994750;28;20034;-65
2023/09/06 04:45:21;;;;;;;7.90;2.20;;;15.10;99.90;;;;;;5001062;28;20045;-65
2023/09/06 04:47:46;;;;;;;2.53;1.95;;;15.10;99.90;;;;;;5000768;28;20042;-64
2023/09/06 04:50:12;;;;;;;2.40;2.03;;;15.20;99.90;;;;;;5007788;28;20034;-65
2023/09/06 04:52:48;;;;;;;2.45;2.05;;;15.30;99.90;;;;;;5008706;28;20025;-65
2023/09/06 04:55:15;;;;;;;3.92;2.20;;;15.40;99.90;;;;;;5007696;28;20539;-66
2023/09/06 04:57:45;;;;;;;2.92;2.03;;;15.50;99.90;;;;;;4997036;22;20133;-66
2023/09/06 05:00:17;;;;;;;3.45;2.17;;;15.50;99.90;;;;;;4972363;28;20106;-67
2023/09/06 05:02:46;;;;;;;3.83;2.00;;;15.60;99.90;;;;;;4952842;28;20026;-66
2023/09/06 05:05:14;;;;;;;3.60;2.10;;;15.60;99.90;;;;;;4952901;28;20032;-67
2023/09/06 05:07:44;;;;;;;3.33;2.13;;;15.80;99.90;;;;;;4968481;28;20822;-65
2023/09/06 05:10:10;;;;;;;5.30;2.25;;;15.80;99.90;;;;;;4969808;28;20100;-66
2023/09/06 05:12:36;;;;;;;5.43;2.13;;;15.70;99.90;;;;;;4969638;28;20042;-66
2023/09/06 05:15:03;;;;;;;3.42;2.10;;;15.60;99.90;;;;;;4968777;28;20365;-66
2023/09/06 05:17:29;;;;;;;3.38;2.30;;;15.60;99.90;;;;;;4965816;28;20424;-65
2023/09/06 05:19:54;;;;;;;5.25;2.45;;;15.60;99.90;;;;;;4965896;28;20031;-67
2023/09/06 05:22:22;;;;;;;5.30;2.50;;;15.70;99.90;;;;;;4970738;28;20512;-67
2023/09/06 05:24:49;;;;;;;2.58;1.90;;;15.80;99.90;;;;;;4970555;28;20404;-67
2023/09/06 05:27:17;;;;;;;3.38;1.90;;;15.90;99.90;;;;;;4961268;28;20041;-66
2023/09/06 05:29:43;;;;;;;4.05;2.20;;;16.00;99.90;;;;;;4969312;28;20023;-66
2023/09/06 05:32:08;;;;;;;4.35;2.25;;;16.10;99.90;;;;;;4964215;28;20038;-66
2023/09/06 05:34:34;;;;;;;3.95;2.45;;;16.20;99.90;;;;;;4965700;28;20109;-67
2023/09/06 05:36:59;;;;;;;2.58;1.70;;;16.30;99.90;;;;;;4970205;28;20050;-67
2023/09/06 05:39:25;;;;;;;3.22;1.88;;;16.40;99.90;;;;;;4967732;28;20033;-66
2023/09/06 05:41:51;;;;;;;4.05;1.90;;;16.40;99.90;;;;;;4968929;28;20031;-67
2023/09/06 05:44:16;;;;;;;3.78;2.22;;;16.50;99.90;;;;;;4968055;28;20035;-67
2023/09/06 05:46:43;;;;;;;4.45;2.25;;;16.50;99.90;;;;;;4968756;28;20026;-66
2023/09/06 05:49:09;;;;;;;4.18;2.08;;;16.50;99.90;;;;;;4968580;28;20046;-67
2023/09/06 05:51:35;;;;;;;6.10;2.83;;;16.60;99.90;;;;;;4968631;28;20061;-67
2023/09/06 05:54:00;;;;;;;7.43;2.40;;;16.70;99.90;;;;;;4968665;28;20035;-67
2023/09/06 05:56:26;;;;;;;4.03;2.30;;;16.80;99.90;;;;;;4967980;28;20039;-67
2023/09/06 05:58:52;;;;;;;3.60;2.20;;;16.90;99.90;;;;;;4969586;28;20047;-66
2023/09/06 06:01:18;;;;;;;4.55;2.20;;;17.10;99.90;;;;;;4965260;28;20094;-66
2023/09/06 06:03:43;;;;;;;7.38;2.40;;;17.50;99.90;;;;;;4965453;28;20030;-66
2023/09/06 06:06:10;;;;;;;3.53;2.30;;;17.90;99.90;;;;;;4965200;28;20400;-67
2023/09/06 06:08:37;;;;;;;3.03;2.22;;;18.10;99.90;;;;;;4966188;28;20481;-66
2023/09/06 06:11:03;;;;;;;3.40;2.05;;;18.50;99.90;;;;;;4965209;28;20551;-66
2023/09/06 06:13:29;;;;;;;3.47;2.08;;;18.70;99.90;;;;;;4967141;28;20034;-66
2023/09/06 06:15:54;;;;;;;5.10;1.85;;;18.70;99.90;;;;;;4968088;28;20023;-67
2023/09/06 06:18:24;;;;;;;2.08;1.83;;;18.70;99.90;;;;;;4983876;28;20560;-66
2023/09/06 06:20:50;;;;;;;9.05;2.17;;;18.70;99.90;;;;;;4969875;28;20081;-66
2023/09/06 06:23:15;;;;;;;2.55;2.05;;;18.60;99.90;;;;;;4967419;28;20396;-66
2023/09/06 06:25:41;;;;;;;4.53;2.22;;;18.50;99.90;;;;;;4964193;28;20019;-66
2023/09/06 06:28:07;;;;;;;3.88;2.33;;;18.60;99.90;;;;;;4969279;28;20023;-67
2023/09/06 06:30:33;;;;;;;2.95;2.00;;;18.70;99.90;;;;;;4967627;28;20023;-67
2023/09/06 06:33:00;;;;;;;3.80;2.17;;;18.80;99.90;;;;;;4963442;28;20042;-67
2023/09/06 06:35:26;;;;;;;3.97;1.98;;;18.80;99.90;;;;;;4965768;28;20022;-67
2023/09/06 06:37:51;;;;;;;3.33;2.00;;;18.90;99.90;;;;;;4969538;28;20557;-66
2023/09/06 06:40:17;;;;;;;5.93;1.92;;;18.90;99.90;;;;;;4973366;28;20088;-68
2023/09/06 06:42:44;;;;;;;5.88;1.92;;;18.90;99.90;;;;;;4972204;28;20054;-67
2023/09/06 06:45:10;;;;;;;5.50;2.15;;;18.90;99.90;;;;;;4972676;28;20492;-67
2023/09/06 06:47:36;;;;;;;4.25;1.85;;;19.10;99.90;;;;;;4969238;28;20033;-67
2023/09/06 06:50:06;;;;;;;5.72;1.90;;;19.20;99.90;;;;;;4969143;28;20031;-66
2023/09/06 06:52:33;;;;;;;3.72;1.95;;;19.60;99.90;;;;;;4971527;28;20026;-67
2023/09/06 06:54:59;;;;;;;4.30;1.67;;;20.30;99.90;;;;;;4971444;28;20023;-66
2023/09/06 06:57:24;;;;;;;2.85;1.42;;;21.60;99.90;;;;;;4970101;28;20548;-68
2023/09/06 06:59:50;;;;;;;2.03;1.50;;;23.30;99.90;;;;;;4972452;28;20098;-65
2023/09/06 07:02:16;;;;;;;5.82;1.50;;;24.80;99.90;;;;;;4969418;28;20034;-66
2023/09/06 07:04:41;;;;;;;3.28;1.55;;;25.90;97.30;;;;;;4969701;28;20037;-65
2023/09/06 07:07:07;;;;;;;2.33;1.45;;;27.00;95.50;;;;;;4970014;28;20286;-65
2023/09/06 07:09:33;;;;;;;4.20;1.50;;;27.70;92.60;;;;;;4971203;28;20023;-64
2023/09/06 07:11:59;;;;;;;4.40;1.70;;;28.50;90.70;;;;;;4970523;28;20099;-65
2023/09/06 07:14:24;;;;;;;2.45;1.55;;;29.30;87.80;;;;;;4972781;28;20030;-66
2023/09/06 07:16:50;;;;;;;2.97;1.60;;;29.70;85.50;;;;;;4968843;28;20098;-65
2023/09/06 07:19:15;;;;;;;3.08;1.85;;;31.30;84.20;;;;;;4969045;28;20199;-66
2023/09/06 07:21:42;;;;;;;3.55;1.88;;;30.80;81.50;;;;;;4971317;28;20042;-64
2023/09/06 07:24:09;;;;;;;3.42;1.55;;;30.90;82.60;;;;;;4967304;28;20030;-66
2023/09/06 07:26:35;;;;;;;2.80;1.90;;;31.20;79.60;;;;;;4968969;28;20069;-65
2023/09/06 07:29:01;;;;;;;2.17;1.50;;;31.40;78.00;;;;;;4971859;28;21658;-66
2023/09/06 07:31:27;;;;;;;2.38;1.73;;;31.50;78.70;;;;;;4966702;28;20037;-66
2023/09/06 07:33:52;;;;;;;2.25;1.58;;;31.30;76.90;;;;;;4971062;28;21084;-66
2023/09/06 07:36:18;;;;;;;4.10;1.67;;;30.80;78.40;;;;;;4970862;28;20035;-66
2023/09/06 07:38:44;;;;;;;2.58;1.67;;;31.10;77.60;;;;;;4971470;28;20562;-65
2023/09/06 07:41:11;;;;;;;2.25;1.55;;;31.60;79.40;;;;;;4970913;28;20034;-65
2023/09/06 07:43:37;;;;;;;1.88;1.52;;;31.60;77.20;;;;;;4970357;28;20027;-65
2023/09/06 07:46:07;;;;;;;2.40;1.83;;;31.90;76.60;;;;;;4966551;28;20643;-66
2023/09/06 07:48:32;;;;;;;2.35;1.83;;;31.90;75.70;;;;;;4969057;28;20027;-65
2023/09/06 07:50:59;;;;;;;6.18;1.83;;;31.80;75.50;;;;;;4967433;28;20034;-66
2023/09/06 07:53:28;;;;;;;2.80;1.67;;;31.60;76.10;;;;;;4972238;28;20031;-65
2023/09/06 07:55:55;;;;;;;2.65;1.40;;;31.60;76.90;;;;;;4969358;28;20034;-65
2023/09/06 07:58:21;;;;;;;4.72;1.80;;;32.30;74.70;;;;;;4969932;28;20054;-66
2023/09/06 08:00:47;;;;;;;2.47;1.80;;;31.80;75.80;;;;;;4970683;28;20058;-65
2023/09/06 08:03:14;;;;;;;3.17;2.08;;;32.40;74.00;;;;;;4969322;28;20035;-66
2023/09/06 08:05:40;;;;;;;6.45;2.00;;;32.40;73.70;;;;;;4970428;28;20105;-65
2023/09/06 08:08:08;;;;;;;2.50;2.10;;;32.20;75.30;;;;;;4969447;28;20058;-66
2023/09/06 08:10:35;;;;;;;4.53;2.28;;;32.80;73.70;;;;;;4967698;28;20033;-66
2023/09/06 08:13:03;;;;;;;4.38;1.85;;;32.80;73.60;;;;;;4968790;28;20022;-66
2023/09/06 08:15:32;;;;;;;3.88;2.40;;;32.80;72.20;;;;;;4970238;28;20023;-66
2023/09/06 08:17:58;;;;;;;3.00;1.80;;;32.20;74.20;;;;;;4970220;28;20027;-66
2023/09/06 08:20:23;;;;;;;4.68;2.75;;;32.30;73.40;;;;;;4967543;28;20476;-66
2023/09/06 08:22:49;;;;;;;2.72;2.17;;;32.10;72.20;;;;;;4971421;28;20038;-66
2023/09/06 08:25:15;;;;;;;4.93;1.80;;;32.30;74.10;;;;;;4970753;28;20455;-66
2023/09/06 08:27:41;;;;;;;3.08;1.85;;;32.20;75.00;;;;;;4969410;28;20030;-66
2023/09/06 08:30:10;;;;;;;7.75;1.90;;;32.50;73.70;;;;;;4950358;28;20043;-66
2023/09/06 08:32:36;;;;;;;6.47;2.20;;;32.70;74.00;;;;;;4962127;28;20146;-66
2023/09/06 08:35:02;;;;;;;2.88;1.70;;;33.60;72.40;;;;;;4967284;28;20022;-66
2023/09/06 08:37:28;;;;;;;3.33;2.25;;;33.60;72.90;;;;;;4965632;28;20438;-66
2023/09/06 08:39:53;;;;;;;5.45;1.98;;;33.70;71.90;;;;;;4966200;28;20031;-66
2023/09/06 08:42:22;;;;;;;9.35;1.60;;;34.10;70.20;;;;;;4965295;28;20041;-66
2023/09/06 08:44:48;;;;;;;2.72;1.73;;;33.90;71.00;;;;;;4965957;28;20027;-65
2023/09/06 08:47:17;;;;;;;4.20;1.83;;;34.10;70.80;;;;;;4964274;28;20039;-66
2023/09/06 08:49:46;;;;;;;3.83;2.17;;;33.90;70.20;;;;;;4964820;28;20058;-65
2023/09/06 08:52:14;;;;;;;2.90;2.05;;;34.30;70.70;;;;;;4964903;28;21127;-66
2023/09/06 08:54:44;;;;;;;3.78;2.30;;;34.10;68.50;;;;;;4965470;28;20023;-66
2023/09/06 08:57:13;;;;;;;2.67;2.00;;;33.80;68.00;;;;;;4969947;28;20042;-66
2023/09/06 08:59:40;;;;;;;3.67;2.10;;;33.90;69.80;;;;;;4966121;28;20035;-66
2023/09/06 09:02:10;;;;;;;3.47;2.10;;;34.30;68.40;;;;;;4963803;28;20050;-66
2023/09/06 09:04:40;;;;;;;4.35;2.30;;;34.10;67.00;;;;;;4963910;28;20093;-66
2023/09/06 09:07:07;;;;;;;3.45;1.95;;;34.00;67.30;;;;;;4965616;28;20035;-65
2023/09/06 09:09:32;;;;;;;4.18;1.88;;;33.50;66.40;;;;;;4964778;28;20018;-66
2023/09/06 09:11:59;;;;;;;6.55;2.10;;;33.50;67.80;;;;;;4964779;28;20090;-66
2023/09/06 09:14:25;;;;;;;5.32;2.00;;;33.30;67.20;;;;;;4963951;28;20026;-66
2023/09/06 09:16:58;;;;;;;4.78;1.90;;;33.10;70.30;;;;;;4963422;28;20118;-66
2023/09/06 09:19:25;;;;;;;3.17;2.13;;;33.30;68.40;;;;;;4962037;28;20050;-66
2023/09/06 09:21:51;;;;;;;5.18;2.15;;;33.00;68.60;;;;;;4961409;28;20038;-66
2023/09/06 09:24:28;;;;;;;3.22;2.20;;;33.40;68.10;;;;;;4965892;28;20038;-66
2023/09/06 09:26:56;;;;;;;5.85;2.22;;;33.60;69.60;;;;;;4964171;28;20045;-66
2023/09/06 09:29:23;;;;;;;4.22;2.40;;;33.60;66.50;;;;;;4966751;28;20030;-66
2023/09/06 09:31:48;;;;;;;3.08;1.83;;;33.70;64.30;;;;;;4952963;28;20058;-66
2023/09/06 09:34:14;;;;;;;3.05;2.10;;;33.60;65.60;;;;;;4960508;28;20404;-70
2023/09/06 09:36:40;;;;;;;3.38;1.75;;;33.60;64.50;;;;;;4965760;28;20027;-65
2023/09/06 09:39:13;;;;;;;2.38;1.70;;;33.40;66.80;;;;;;4966727;28;20027;-66
2023/09/06 09:41:44;;;;;;;2.38;1.60;;;32.90;64.40;;;;;;4965245;28;21257;-67
2023/09/06 09:44:13;;;;;;;3.85;2.20;;;33.00;67.20;;;;;;4965505;28;20168;-66
2023/09/06 09:46:41;;;;;;;3.30;2.28;;;32.80;65.90;;;;;;4965882;28;20038;-66
2023/09/06 09:49:10;;;;;;;5.15;2.17;;;32.90;65.30;;;;;;4961085;28;20038;-66
2023/09/06 09:51:37;;;;;;;3.17;2.30;;;33.50;65.30;;;;;;4965950;28;20105;-66
2023/09/06 09:54:07;;;;;;;2.95;2.13;;;32.90;64.70;;;;;;4965177;28;20031;-66
2023/09/06 09:56:34;;;;;;;3.13;2.00;;;32.90;67.10;;;;;;4963178;28;20118;-66
2023/09/06 09:59:02;;;;;;;4.93;1.90;;;32.70;64.60;;;;;;4965972;28;20365;-66
2023/09/06 10:01:28;;;;;;;7.05;2.08;;;32.50;65.70;;;;;;4963216;28;20028;-65
2023/09/06 10:03:58;;;;;;;3.10;2.28;;;32.10;65.90;;;;;;4963632;28;20057;-65
2023/09/06 10:06:26;;;;;;;3.53;2.13;;;31.80;66.90;;;;;;4962117;28;20089;-66
2023/09/06 10:08:57;;;;;;;4.55;2.38;;;31.70;66.30;;;;;;4964892;28;20042;-66
2023/09/06 10:11:24;;;;;;;2.42;1.70;;;31.40;67.30;;;;;;4964142;28;20161;-65
2023/09/06 10:13:51;;;;;;;3.00;2.05;;;31.40;68.20;;;;;;4965158;28;20031;-65
2023/09/06 10:16:18;;;;;;;4.45;2.13;;;31.20;68.50;;;;;;4967260;28;20073;-65
2023/09/06 10:18:44;;;;;;;3.00;2.00;;;30.80;67.70;;;;;;4966238;28;20027;-65
2023/09/06 10:21:12;;;;;;;4.72;2.10;;;30.80;67.30;;;;;;4964736;28;20050;-64
2023/09/06 10:23:41;;;;;;;4.13;2.42;;;30.70;68.90;;;;;;4965311;28;20106;-65
2023/09/06 10:26:07;;;;;;;4.22;2.38;;;30.40;69.20;;;;;;4966709;28;20449;-64
2023/09/06 10:28:33;;;;;;;3.25;2.13;;;30.20;69.90;;;;;;4964843;28;20046;-65
2023/09/06 10:31:09;;;;;;;4.22;2.45;;;30.20;71.20;;;;;;4953829;28;20050;-65
2023/09/06 10:33:42;;;;;;;3.75;2.50;;;30.30;71.00;;;;;;4968936;28;20038;-65
2023/09/06 10:36:10;;;;;;;4.63;2.50;;;30.30;70.90;;;;;;4966468;28;20022;-65
2023/09/06 10:38:51;;;;;;;4.13;2.42;;;30.30;71.60;;;;;;4964896;28;20145;-65
2023/09/06 10:41:18;;;;;;;3.83;2.22;;;30.10;70.90;;;;;;4966168;28;20038;-65
2023/09/06 10:43:59;;;;;;;5.93;2.28;;;29.90;69.90;;;;;;4965683;28;20033;-63
2023/09/06 10:46:35;;;;;;;5.50;2.33;;;29.60;70.20;;;;;;4967009;28;20084;-66
2023/09/06 10:49:22;;;;;;;6.95;2.42;;;29.30;70.10;;;;;;4965647;28;20082;-64
2023/09/06 10:51:59;;;;;;;3.72;2.42;;;29.20;71.10;;;;;;4961934;28;20503;-65
2023/09/06 10:54:35;;;;;;;3.28;2.28;;;29.10;71.30;;;;;;4968414;28;20042;-65
2023/09/06 10:57:03;;;;;;;3.63;2.30;;;29.00;72.00;;;;;;4967322;28;20035;-64
2023/09/06 10:59:29;;;;;;;4.07;2.78;;;29.00;72.70;;;;;;4968737;28;20038;-64
2023/09/06 11:02:11;;;;;;;3.95;2.70;;;28.90;74.30;;;;;;4965068;28;20035;-65
2023/09/06 11:04:36;;;;;;;6.20;2.55;;;29.10;75.50;;;;;;4967229;28;20063;-65
2023/09/06 11:07:10;;;;;;;3.17;2.22;;;29.10;73.80;;;;;;4965174;28;20128;-65
2023/09/06 11:09:45;;;;;;;3.53;2.10;;;29.20;75.30;;;;;;4966956;28;20034;-64
2023/09/06 11:12:12;;;;;;;4.18;2.20;;;29.10;73.00;;;;;;4966581;28;20031;-65
2023/09/06 11:14:38;;;;;;;5.28;2.72;;;29.10;74.70;;;;;;4959537;28;20026;-65
2023/09/06 11:17:03;;;;;;;3.72;2.55;;;28.90;73.60;;;;;;4963460;28;20088;-66
2023/09/06 11:19:30;;;;;;;4.72;2.60;;;28.90;75.40;;;;;;4967743;28;20035;-64
2023/09/06 11:22:10;;;;;;;3.70;2.58;;;28.90;77.10;;;;;;4964500;28;20030;-65
2023/09/06 11:24:37;;;;;;;4.10;2.40;;;28.90;77.10;;;;;;4967258;28;20026;-65
2023/09/06 11:27:16;;;;;;;2.97;2.15;;;28.90;75.20;;;;;;4967675;28;20026;-66
2023/09/06 11:29:43;;;;;;;4.93;2.45;;;28.90;77.50;;;;;;4966274;28;20078;-63
2023/09/06 11:32:11;;;;;;;5.75;2.90;;;28.80;76.40;;;;;;4953121;28;20105;-66
2023/09/06 11:34:44;;;;;;;3.72;2.20;;;28.70;77.00;;;;;;4968262;28;20109;-66
2023/09/06 11:37:15;;;;;;;3.80;2.53;;;28.60;75.60;;;;;;4963285;28;20583;-65
2023/09/06 11:39:45;;;;;;;4.28;2.60;;;28.60;76.40;;;;;;4968258;28;20038;-65
2023/09/06 11:42:16;;;;;;;5.30;2.40;;;28.60;77.50;;;;;;4967067;28;20378;-65
2023/09/06 11:44:53;;;;;;;3.40;2.17;;;28.50;79.00;;;;;;4967287;28;20034;-65
2023/09/06 11:47:20;;;;;;;5.60;2.63;;;28.50;77.40;;;;;;4966368;28;20035;-65
2023/09/06 11:49:46;;;;;;;5.68;2.75;;;28.60;79.70;;;;;;4960100;28;20062;-65
2023/09/06 11:52:18;;;;;;;4.30;2.47;;;28.70;80.40;;;;;;4962107;28;20027;-65
2023/09/06 11:54:49;;;;;;;5.88;2.30;;;28.70;79.00;;;;;;4960886;28;20023;-65
2023/09/06 11:57:26;;;;;;;6.95;2.30;;;28.60;78.80;;;;;;4957403;28;20085;-65
2023/09/06 11:59:58;;;;;;;3.67;2.45;;;28.50;78.40;;;;;;4959535;28;20406;-65
2023/09/06 12:02:34;;;;;;;5.07;2.80;;;28.60;79.90;;;;;;4960379;28;20045;-65
2023/09/06 12:05:04;;;;;;;4.00;2.35;;;28.50;77.20;;;;;;4966676;28;20046;-65
2023/09/06 12:07:33;;;;;;;3.17;2.20;;;28.30;78.50;;;;;;4967080;28;20030;-65
2023/09/06 12:10:04;;;;;;;3.95;2.35;;;28.30;77.30;;;;;;4959940;28;20035;-65
2023/09/06 12:12:40;;;;;;;4.07;2.60;;;28.20;77.80;;;;;;4966295;28;20038;-65
2023/09/06 12:15:14;;;;;;;3.40;2.00;;;28.20;79.60;;;;;;4964830;28;20062;-65
2023/09/06 12:17:45;;;;;;;4.88;2.10;;;28.20;78.70;;;;;;4963587;28;20122;-65
2023/09/06 12:20:24;;;;;;;5.78;2.67;;;28.20;79.80;;;;;;4963253;28;20035;-65
2023/09/06 12:22:52;;;;;;;3.08;2.10;;;28.10;80.20;;;;;;4965640;28;20058;-66
2023/09/06 12:25:19;;;;;;;3.63;2.33;;;28.10;81.70;;;;;;4963316;28;20117;-67
2023/09/06 12:27:46;;;;;;;4.97;2.50;;;28.20;79.90;;;;;;4965149;28;20058;-66
2023/09/06 12:30:14;;;;;;;4.63;2.45;;;28.10;78.70;;;;;;4952778;28;20117;-68
2023/09/06 12:32:40;;;;;;;4.95;2.55;;;28.10;78.90;;;;;;4962737;28;20031;-67
2023/09/06 12:35:07;;;;;;;3.15;2.15;;;28.10;75.90;;;;;;4967710;28;21270;-67
2023/09/06 12:37:36;;;;;;;7.60;2.78;;;28.10;77.90;;;;;;4965841;28;20092;-67
2023/09/06 12:40:10;;;;;;;6.20;2.40;;;28.10;76.10;;;;;;4966203;28;20055;-67
2023/09/06 12:42:46;;;;;;;4.43;2.20;;;28.00;75.40;;;;;;4962650;28;20026;-67
2023/09/06 12:45:29;;;;;;;3.50;2.55;;;28.00;74.70;;;;;;4967223;28;20039;-67
2023/09/06 12:47:56;;;;;;;6.25;2.50;;;28.00;74.50;;;;;;4962145;28;20027;-67
2023/09/06 12:50:22;;;;;;;3.75;2.58;;;28.00;73.90;;;;;;4966642;28;20086;-68
2023/09/06 12:52:48;;;;;;;3.47;1.98;;;28.00;74.50;;;;;;4966529;28;20484;-67
2023/09/06 12:55:14;;;;;;;5.47;1.92;;;28.00;74.70;;;;;;4965525;28;20030;-67